Time;durP1;ratioP1;P1;durP2;ratioP2;P2;SDS_P1;SDS_P2;PMS_P1;PMS_P2;Temp;Humidity;BMP_temperature;BMP_pressure;BME280_temperature;BME280_humidity;BME280_pressure;Samples;Min_cycle;Max_cycle;Signal;HPM_P1;HPM_P2
2022/09/14 00:01:15;;;;;;;3.83;1.08;;;;;;;;;;4974229;28;20503;-72
2022/09/14 00:03:42;;;;;;;3.30;1.13;;;;;;;;;;4974154;28;20477;-73
2022/09/14 00:06:10;;;;;;;4.63;0.95;;;;;;;;;;4972893;28;20023;-71
2022/09/14 00:08:38;;;;;;;3.92;0.80;;;;;;;;;;4973956;28;20483;-73
2022/09/14 00:11:08;;;;;;;2.25;0.50;;;;;;;;;;4972985;28;20390;-74
2022/09/14 00:13:35;;;;;;;;;;;;;;;;;;4974816;28;20094;-73
2022/09/14 00:16:10;;;;;;;2.10;0.63;;;;;;;;;;4976752;28;19913;-72
2022/09/14 00:18:37;;;;;;;4.53;0.80;;;;;;;;;;4980850;28;20098;-72
2022/09/14 00:21:06;;;;;;;3.78;1.05;;;;;;;;;;4980688;28;20098;-72
2022/09/14 00:23:37;;;;;;;2.55;0.73;;;;;;;;;;4979558;28;20077;-71
2022/09/14 00:26:11;;;;;;;3.20;0.90;;;;;;;;;;4979798;28;20471;-73
2022/09/14 00:28:39;;;;;;;3.15;1.00;;;;;;;;;;4980906;28;20118;-73
2022/09/14 00:31:06;;;;;;;3.53;0.95;;;;;;;;;;4980240;28;20113;-71
2022/09/14 00:33:33;;;;;;;5.47;1.10;;;;;;;;;;4980705;28;20018;-71
2022/09/14 00:36:04;;;;;;;1.85;0.50;;;;;;;;;;4980378;28;20019;-71
2022/09/14 00:38:32;;;;;;;2.08;0.50;;;;;;;;;;4980319;28;20076;-71
2022/09/14 00:41:00;;;;;;;1.85;0.60;;;;;;;;;;4979942;28;20029;-71
2022/09/14 00:43:27;;;;;;;2.80;0.55;;;;;;;;;;4979301;28;20545;-72
2022/09/14 00:45:54;;;;;;;6.38;1.48;;;;;;;;;;4979119;28;20387;-72
2022/09/14 00:48:22;;;;;;;2.55;0.70;;;;;;;;;;4979122;28;20110;-71
2022/09/14 00:50:49;;;;;;;4.78;1.00;;;;;;;;;;4979127;28;20030;-72
2022/09/14 00:53:17;;;;;;;4.03;1.35;;;;;;;;;;4979163;28;20049;-72
2022/09/14 00:55:44;;;;;;;2.10;0.60;;;;;;;;;;4979175;28;20111;-72
2022/09/14 00:58:11;;;;;;;3.28;0.73;;;;;;;;;;4980423;28;20029;-73
2022/09/14 01:00:39;;;;;;;3.58;0.70;;;;;;;;;;4980075;28;20474;-73
2022/09/14 01:03:06;;;;;;;3.55;1.00;;;;;;;;;;4978959;28;20030;-73
2022/09/14 01:05:39;;;;;;;4.50;0.60;;;;;;;;;;4980125;28;20031;-73
2022/09/14 01:08:06;;;;;;;4.45;0.80;;;;;;;;;;4980179;28;20505;-73
2022/09/14 01:10:52;;;;;;;3.72;0.45;;;;;;;;;;4979951;28;20119;-73
2022/09/14 01:13:37;;;;;;;0.90;0.30;;;;;;;;;;4980159;28;20015;-73
2022/09/14 01:16:22;;;;;;;3.45;0.60;;;;;;;;;;4980581;28;20027;-73
2022/09/14 01:18:57;;;;;;;2.30;0.38;;;;;;;;;;4980142;28;20029;-72
2022/09/14 01:21:30;;;;;;;3.08;0.60;;;;;;;;;;4978805;28;20050;-72
2022/09/14 01:24:18;;;;;;;1.45;0.50;;;;;;;;;;4980118;28;20411;-73
2022/09/14 01:26:54;;;;;;;2.75;0.80;;;;;;;;;;4979255;28;20386;-71
2022/09/14 01:29:33;;;;;;;2.40;0.75;;;;;;;;;;4976386;28;20407;-72
2022/09/14 01:32:00;;;;;;;2.80;0.77;;;;;;;;;;4976128;28;20173;-72
2022/09/14 01:34:27;;;;;;;2.80;0.43;;;;;;;;;;4976530;28;20050;-74
2022/09/14 01:36:58;;;;;;;4.03;0.68;;;;;;;;;;4976725;28;20549;-73
2022/09/14 01:39:27;;;;;;;1.63;0.40;;;;;;;;;;4975056;28;20022;-73
2022/09/14 01:41:54;;;;;;;1.42;0.40;;;;;;;;;;4976879;28;20093;-73
2022/09/14 01:44:24;;;;;;;2.97;0.30;;;;;;;;;;4976718;28;20027;-73
2022/09/14 01:46:54;;;;;;;2.28;0.60;;;;;;;;;;4975592;28;20073;-73
2022/09/14 01:49:24;;;;;;;2.22;0.70;;;;;;;;;;4976499;28;20054;-71
2022/09/14 01:51:57;;;;;;;2.17;0.50;;;;;;;;;;4975254;28;20023;-73
2022/09/14 01:54:33;;;;;;;8.82;1.02;;;;;;;;;;4976485;28;20023;-71
2022/09/14 01:57:14;;;;;;;6.88;1.00;;;;;;;;;;4976418;28;20033;-73
2022/09/14 01:59:40;;;;;;;;;;;;;;;;;;4976839;28;20022;-73
2022/09/14 02:02:11;;;;;;;2.67;0.70;;;;;;;;;;4976389;28;19906;-73
2022/09/14 02:04:38;;;;;;;;;;;;;;;;;;4977093;28;20030;-72
2022/09/14 02:07:05;;;;;;;3.50;0.50;;;;;;;;;;4976695;28;19956;-72
2022/09/14 02:09:32;;;;;;;2.10;0.47;;;;;;;;;;4976494;28;20026;-72
2022/09/14 02:12:02;;;;;;;1.65;0.65;;;;;;;;;;4976206;28;20051;-73
2022/09/14 02:14:30;;;;;;;1.42;0.30;;;;;;;;;;4976280;28;20556;-73
2022/09/14 02:16:57;;;;;;;2.35;0.43;;;;;;;;;;4976393;28;20027;-73
2022/09/14 02:19:26;;;;;;;2.47;0.70;;;;;;;;;;4976165;28;20027;-72
2022/09/14 02:21:53;;;;;;;2.65;0.30;;;;;;;;;;4976282;28;20094;-72
2022/09/14 02:24:20;;;;;;;2.95;0.40;;;;;;;;;;4975851;28;20023;-72
2022/09/14 02:26:49;;;;;;;3.30;0.73;;;;;;;;;;4976090;28;20033;-72
2022/09/14 02:29:16;;;;;;;1.85;0.32;;;;;;;;;;4975830;28;20030;-72
2022/09/14 02:31:55;;;;;;;2.47;0.30;;;;;;;;;;4975622;28;20041;-72
2022/09/14 02:34:30;;;;;;;2.42;0.35;;;;;;;;;;4975971;28;20379;-72
2022/09/14 02:37:03;;;;;;;2.08;0.50;;;;;;;;;;4975677;28;20029;-72
2022/09/14 02:39:39;;;;;;;3.28;0.38;;;;;;;;;;4975243;28;20432;-72
2022/09/14 02:42:23;;;;;;;1.83;0.35;;;;;;;;;;4975719;28;20098;-71
2022/09/14 02:45:10;;;;;;;3.38;0.50;;;;;;;;;;4973990;28;20030;-72
2022/09/14 02:47:48;;;;;;;0.68;0.20;;;;;;;;;;4973444;28;20121;-71
2022/09/14 02:50:21;;;;;;;5.95;0.75;;;;;;;;;;4973847;28;20054;-73
2022/09/14 02:52:59;;;;;;;3.00;0.60;;;;;;;;;;4975534;28;20022;-72
2022/09/14 02:55:28;;;;;;;1.02;0.43;;;;;;;;;;4975280;28;20042;-71
2022/09/14 02:58:21;;;;;;;2.33;0.47;;;;;;;;;;4975320;28;20034;-71
2022/09/14 03:00:49;;;;;;;1.10;0.20;;;;;;;;;;4974338;28;20495;-71
2022/09/14 03:03:20;;;;;;;1.75;0.40;;;;;;;;;;4975189;28;20097;-73
2022/09/14 03:05:47;;;;;;;2.97;0.40;;;;;;;;;;4973967;28;20026;-72
2022/09/14 03:08:14;;;;;;;2.33;0.52;;;;;;;;;;4975338;28;20110;-73
2022/09/14 03:10:43;;;;;;;1.17;0.35;;;;;;;;;;4974397;28;20042;-73
2022/09/14 03:13:11;;;;;;;1.75;0.30;;;;;;;;;;4972561;28;20031;-73
2022/09/14 03:15:38;;;;;;;3.25;0.40;;;;;;;;;;4973669;28;20082;-73
2022/09/14 03:18:06;;;;;;;1.23;0.20;;;;;;;;;;4973678;28;20023;-72
2022/09/14 03:20:34;;;;;;;1.15;0.20;;;;;;;;;;4973982;28;20027;-74
2022/09/14 03:23:01;;;;;;;1.77;0.30;;;;;;;;;;4974871;28;20093;-73
2022/09/14 03:25:29;;;;;;;0.60;0.20;;;;;;;;;;4974720;28;20097;-73
2022/09/14 03:27:59;;;;;;;1.45;0.40;;;;;;;;;;4974728;28;20023;-73
2022/09/14 03:30:28;;;;;;;2.17;0.30;;;;;;;;;;4974742;28;20030;-71
2022/09/14 03:32:55;;;;;;;0.82;0.20;;;;;;;;;;4975298;28;20050;-72
2022/09/14 03:35:22;;;;;;;0.82;0.20;;;;;;;;;;4974547;28;20027;-73
2022/09/14 03:37:49;;;;;;;2.25;0.30;;;;;;;;;;4974752;28;20347;-73
2022/09/14 03:40:16;;;;;;;0.93;0.30;;;;;;;;;;4974658;28;20054;-73
2022/09/14 03:42:45;;;;;;;1.00;0.35;;;;;;;;;;4974525;28;20030;-72
2022/09/14 03:45:12;;;;;;;1.42;0.25;;;;;;;;;;4973220;28;20054;-73
2022/09/14 03:47:40;;;;;;;1.52;0.25;;;;;;;;;;4974538;28;20042;-73
2022/09/14 03:50:08;;;;;;;1.85;0.43;;;;;;;;;;4973916;28;20510;-73
2022/09/14 03:52:36;;;;;;;1.75;0.40;;;;;;;;;;4974441;28;20388;-73
2022/09/14 03:55:04;;;;;;;1.50;0.50;;;;;;;;;;4973055;28;20080;-72
2022/09/14 03:57:32;;;;;;;1.33;0.32;;;;;;;;;;4974307;28;20027;-72
2022/09/14 04:14:08;;;;;;;0.77;0.28;;;19.60;99.90;;;;;;5070665;27;20461;-71
2022/09/14 04:16:36;;;;;;;2.05;0.55;;;19.60;99.90;;;;;;5069019;28;20032;-71
2022/09/14 04:19:04;;;;;;;1.30;0.30;;;19.50;99.90;;;;;;5070354;28;20074;-71
2022/09/14 04:21:31;;;;;;;0.50;0.20;;;19.70;99.90;;;;;;5070347;28;20017;-71
2022/09/14 04:23:59;;;;;;;1.13;0.25;;;19.70;99.90;;;;;;5070289;28;20021;-73
2022/09/14 04:26:28;;;;;;;1.15;0.25;;;19.80;99.90;;;;;;5068798;28;20031;-75
2022/09/14 04:28:56;;;;;;;1.27;0.15;;;19.70;99.90;;;;;;5070483;28;20032;-74
2022/09/14 04:31:24;;;;;;;2.15;0.30;;;19.80;99.50;;;;;;5070130;28;20032;-74
2022/09/14 04:33:55;;;;;;;0.82;0.20;;;19.80;99.80;;;;;;5070180;28;20029;-74
2022/09/14 04:36:27;;;;;;;0.95;0.30;;;19.70;99.90;;;;;;5069932;28;20021;-73
2022/09/14 04:38:56;;;;;;;1.50;0.20;;;19.80;99.20;;;;;;5070118;28;20043;-74
2022/09/14 04:41:24;;;;;;;0.38;0.15;;;19.80;99.60;;;;;;5068347;28;20118;-73
2022/09/14 04:43:52;;;;;;;1.98;0.38;;;19.90;99.70;;;;;;5068317;28;20027;-73
2022/09/14 04:46:25;;;;;;;1.35;0.40;;;19.90;99.90;;;;;;5069346;28;20029;-74
2022/09/14 04:48:53;;;;;;;1.65;0.25;;;19.80;99.90;;;;;;5068283;28;20024;-73
2022/09/14 04:51:26;;;;;;;1.48;0.20;;;19.90;99.90;;;;;;5069701;28;20024;-74
2022/09/14 04:53:55;;;;;;;1.50;0.30;;;19.70;99.90;;;;;;5068401;28;20029;-73
2022/09/14 04:56:24;;;;;;;0.80;0.17;;;19.40;99.90;;;;;;5069647;28;20016;-73
2022/09/14 04:58:54;;;;;;;2.03;0.28;;;19.30;99.90;;;;;;5069967;28;20070;-75
2022/09/14 05:01:29;;;;;;;1.65;0.30;;;19.30;99.90;;;;;;5068256;28;20136;-74
2022/09/14 05:03:57;;;;;;;0.50;0.20;;;19.30;99.90;;;;;;5069592;28;20045;-74
2022/09/14 05:06:28;;;;;;;1.70;0.50;;;19.10;99.70;;;;;;5069550;28;20024;-74
2022/09/14 05:08:55;;;;;;;0.57;0.10;;;19.10;99.90;;;;;;5069817;28;20035;-75
2022/09/14 05:11:25;;;;;;;0.90;0.45;;;19.20;99.90;;;;;;5069431;28;20392;-75
2022/09/14 05:13:54;;;;;;;0.50;0.20;;;19.10;99.90;;;;;;5069052;28;20045;-74
2022/09/14 05:16:26;;;;;;;1.33;0.30;;;19.20;99.90;;;;;;5068011;28;20024;-74
2022/09/14 05:19:02;;;;;;;1.30;0.28;;;19.10;99.90;;;;;;5068209;28;20032;-74
2022/09/14 05:21:32;;;;;;;0.40;0.20;;;19.00;99.90;;;;;;5069182;28;20029;-74
2022/09/14 05:24:03;;;;;;;0.57;0.10;;;19.10;99.90;;;;;;5063979;28;20033;-71
2022/09/14 05:26:31;;;;;;;2.60;0.30;;;19.10;99.90;;;;;;5056213;28;20040;-72
2022/09/14 05:29:00;;;;;;;1.90;0.20;;;18.90;99.90;;;;;;5055849;28;20083;-73
2022/09/14 05:31:29;;;;;;;0.50;0.20;;;18.70;99.90;;;;;;5055849;28;20128;-71
2022/09/14 05:33:57;;;;;;;0.80;0.10;;;18.60;99.90;;;;;;5055543;28;20025;-71
2022/09/14 05:36:25;;;;;;;1.23;0.30;;;18.70;99.90;;;;;;5055455;28;20477;-71
2022/09/14 05:38:53;;;;;;;0.80;0.20;;;18.60;99.90;;;;;;5055491;28;20013;-72
2022/09/14 05:41:20;;;;;;;0.40;0.00;;;18.50;99.90;;;;;;5054145;28;20029;-71
2022/09/14 05:43:47;;;;;;;0.43;0.20;;;18.40;99.90;;;;;;5055473;28;20130;-71
2022/09/14 05:46:18;;;;;;;0.80;0.30;;;18.50;99.90;;;;;;5056074;28;20025;-71
2022/09/14 05:48:46;;;;;;;0.77;0.20;;;18.30;99.90;;;;;;5055437;28;20558;-72
2022/09/14 05:51:18;;;;;;;0.75;0.17;;;17.90;99.90;;;;;;5054000;28;20452;-71
2022/09/14 05:53:56;;;;;;;1.30;0.10;;;17.50;99.90;;;;;;5054199;28;20170;-72
2022/09/14 05:56:25;;;;;;;2.35;0.22;;;17.50;99.90;;;;;;5052245;28;20070;-71
2022/09/14 05:58:53;;;;;;;0.60;0.30;;;17.60;99.90;;;;;;5053878;28;20029;-72
2022/09/14 06:01:23;;;;;;;2.33;0.15;;;17.60;99.90;;;;;;5054792;28;20017;-71
2022/09/14 06:03:55;;;;;;;2.33;0.63;;;17.60;99.90;;;;;;5054296;28;20024;-72
2022/09/14 06:06:23;;;;;;;1.42;0.40;;;17.60;99.90;;;;;;5054792;28;20029;-71
2022/09/14 06:08:53;;;;;;;1.60;0.57;;;17.70;99.90;;;;;;5055076;28;20365;-74
2022/09/14 06:11:22;;;;;;;;;;;17.70;99.90;;;;;;5055629;28;20021;-73
2022/09/14 06:13:50;;;;;;;0.93;0.20;;;17.60;99.90;;;;;;5053309;28;20334;-74
2022/09/14 06:16:19;;;;;;;1.55;0.20;;;17.50;99.90;;;;;;5054920;28;20029;-73
2022/09/14 06:18:48;;;;;;;2.35;0.73;;;17.50;99.90;;;;;;5054893;28;20104;-74
2022/09/14 06:21:18;;;;;;;1.88;0.47;;;17.40;99.90;;;;;;5054820;28;20020;-73
2022/09/14 06:23:47;;;;;;;0.68;0.20;;;17.40;99.90;;;;;;5053334;28;20036;-73
2022/09/14 06:26:15;;;;;;;1.38;0.30;;;17.30;99.90;;;;;;5054745;28;20538;-73
2022/09/14 06:28:43;;;;;;;1.73;0.30;;;17.20;99.90;;;;;;5053520;28;20025;-73
2022/09/14 06:31:13;;;;;;;1.02;0.25;;;17.20;99.90;;;;;;5054664;28;20028;-75
2022/09/14 06:33:48;;;;;;;1.25;0.30;;;17.10;99.90;;;;;;5054424;28;20036;-73
2022/09/14 06:36:18;;;;;;;3.63;0.60;;;17.10;99.90;;;;;;5053413;28;20029;-74
2022/09/14 06:38:47;;;;;;;1.35;0.35;;;17.00;99.90;;;;;;5054883;28;20104;-74
2022/09/14 06:41:17;;;;;;;1.00;0.20;;;16.80;99.90;;;;;;5054465;28;20029;-73
2022/09/14 06:43:45;;;;;;;1.88;0.45;;;16.70;99.90;;;;;;5051734;28;20036;-74
2022/09/14 06:46:14;;;;;;;1.55;0.30;;;16.70;99.90;;;;;;5053640;28;20512;-74
2022/09/14 06:48:45;;;;;;;2.30;0.50;;;16.50;99.90;;;;;;5054157;28;20043;-73
2022/09/14 06:51:21;;;;;;;1.05;0.30;;;16.40;99.90;;;;;;5052593;28;20033;-74
2022/09/14 06:53:50;;;;;;;1.92;0.30;;;16.20;99.90;;;;;;5054362;28;20043;-73
2022/09/14 06:56:18;;;;;;;1.77;0.30;;;16.10;99.90;;;;;;5054088;28;20028;-73
2022/09/14 06:58:46;;;;;;;1.35;0.40;;;16.20;99.90;;;;;;5054016;28;20496;-73
2022/09/14 07:01:18;;;;;;;4.28;0.50;;;16.10;99.90;;;;;;5054194;28;20017;-73
2022/09/14 07:03:46;;;;;;;1.35;0.30;;;16.00;99.90;;;;;;5052844;28;20074;-75
2022/09/14 07:06:19;;;;;;;1.77;0.40;;;16.00;99.90;;;;;;5053977;28;20039;-74
2022/09/14 07:08:48;;;;;;;3.45;0.40;;;15.90;99.90;;;;;;5052913;28;20067;-74
2022/09/14 07:11:17;;;;;;;2.17;0.50;;;15.90;99.90;;;;;;5052996;28;20024;-71
2022/09/14 07:13:46;;;;;;;2.60;0.25;;;15.70;99.90;;;;;;5050587;28;20087;-72
2022/09/14 07:16:14;;;;;;;1.88;0.30;;;15.60;99.90;;;;;;5051551;28;20029;-72
2022/09/14 07:18:42;;;;;;;2.97;0.40;;;15.50;99.90;;;;;;5053904;28;20029;-72
2022/09/14 07:21:17;;;;;;;1.25;0.20;;;15.40;99.90;;;;;;5053703;28;20043;-73
2022/09/14 07:23:45;;;;;;;3.95;0.70;;;15.30;99.90;;;;;;5053654;28;20044;-72
2022/09/14 07:26:19;;;;;;;2.80;0.40;;;15.20;99.90;;;;;;5053515;28;20025;-73
2022/09/14 07:28:50;;;;;;;1.75;0.30;;;15.10;99.90;;;;;;5053990;28;20078;-73
2022/09/14 07:31:20;;;;;;;1.85;0.40;;;15.00;99.90;;;;;;5053676;28;20384;-73
2022/09/14 07:33:48;;;;;;;2.53;0.40;;;15.00;99.90;;;;;;5052366;28;20370;-73
2022/09/14 07:36:15;;;;;;;1.70;0.35;;;14.90;99.90;;;;;;5052200;28;20060;-73
2022/09/14 07:38:43;;;;;;;2.05;0.40;;;14.90;99.90;;;;;;5053670;28;20107;-73
2022/09/14 07:41:10;;;;;;;1.98;0.40;;;14.80;99.90;;;;;;5052079;28;20074;-74
2022/09/14 07:43:37;;;;;;;3.75;0.50;;;14.70;99.90;;;;;;5053382;28;20037;-74
2022/09/14 07:46:06;;;;;;;2.15;0.40;;;14.60;99.90;;;;;;5053327;28;20029;-73
2022/09/14 07:48:35;;;;;;;2.10;0.65;;;14.50;99.90;;;;;;5053237;28;20059;-75
2022/09/14 07:51:04;;;;;;;2.55;0.45;;;14.40;99.90;;;;;;5053061;28;20460;-72
2022/09/14 07:53:34;;;;;;;4.60;0.80;;;14.40;99.90;;;;;;5053222;28;20025;-73
2022/09/14 07:56:02;;;;;;;3.57;0.90;;;14.30;99.90;;;;;;5053350;28;20021;-72
2022/09/14 07:58:30;;;;;;;3.30;0.77;;;14.20;99.90;;;;;;5051925;28;20270;-72
2022/09/14 08:00:59;;;;;;;3.05;0.80;;;14.20;99.90;;;;;;5051879;28;20035;-73
2022/09/14 08:03:30;;;;;;;3.13;1.05;;;14.10;99.90;;;;;;5053311;28;20053;-74
2022/09/14 08:06:06;;;;;;;4.38;1.10;;;14.10;99.90;;;;;;5052591;28;20175;-72
2022/09/14 08:08:35;;;;;;;1.95;0.77;;;14.00;99.90;;;;;;5052941;28;20052;-73
2022/09/14 08:11:13;;;;;;;3.90;1.00;;;13.90;99.90;;;;;;5052859;28;20484;-74
2022/09/14 08:13:43;;;;;;;7.97;1.08;;;13.80;99.90;;;;;;5052708;28;20060;-73
2022/09/14 08:16:11;;;;;;;6.05;2.67;;;13.80;99.90;;;;;;5052166;28;20120;-72
2022/09/14 08:18:39;;;;;;;4.35;1.10;;;13.70;99.90;;;;;;5052994;28;20021;-74
2022/09/14 08:21:12;;;;;;;2.60;0.95;;;13.70;99.90;;;;;;5053170;28;20059;-72
2022/09/14 08:23:41;;;;;;;4.25;1.23;;;13.70;99.90;;;;;;5051810;28;20033;-74
2022/09/14 08:26:13;;;;;;;3.88;1.23;;;13.60;99.90;;;;;;5053029;28;20477;-74
2022/09/14 08:28:42;;;;;;;2.33;0.75;;;13.60;99.90;;;;;;5051751;28;20111;-74
2022/09/14 08:31:16;;;;;;;3.38;1.00;;;13.60;99.90;;;;;;5051578;28;20033;-74
2022/09/14 08:33:47;;;;;;;3.85;0.90;;;13.50;99.90;;;;;;5052750;28;20092;-73
2022/09/14 08:36:17;;;;;;;3.63;1.17;;;13.50;99.90;;;;;;5052865;28;20057;-72
2022/09/14 08:38:45;;;;;;;4.97;1.33;;;13.50;99.90;;;;;;5052922;28;20025;-72
2022/09/14 08:41:24;;;;;;;2.20;1.00;;;13.40;99.90;;;;;;5050848;28;20025;-73
2022/09/14 08:43:52;;;;;;;4.72;0.93;;;13.40;99.90;;;;;;5053179;28;20548;-73
2022/09/14 08:46:28;;;;;;;2.05;0.77;;;13.40;99.90;;;;;;5052855;28;20079;-73
2022/09/14 08:48:56;;;;;;;3.53;0.77;;;13.40;99.90;;;;;;5051464;28;20123;-73
2022/09/14 08:51:24;;;;;;;1.95;0.57;;;13.30;99.90;;;;;;5052876;28;20064;-75
2022/09/14 08:53:52;;;;;;;2.72;0.75;;;13.30;99.90;;;;;;5051658;28;20059;-74
2022/09/14 08:56:27;;;;;;;2.38;0.80;;;13.30;99.90;;;;;;5052858;28;20472;-75
2022/09/14 08:59:18;;;;;;;3.45;0.80;;;13.30;99.90;;;;;;5053499;28;20017;-73
2022/09/14 09:01:58;;;;;;;2.58;0.50;;;13.30;99.90;;;;;;5056163;28;20020;-73
2022/09/14 09:04:52;;;;;;;2.53;0.75;;;13.30;99.90;;;;;;5057016;28;20519;-74
2022/09/14 09:07:23;;;;;;;3.15;0.82;;;13.30;99.90;;;;;;5056377;28;20029;-74
2022/09/14 09:09:53;;;;;;;2.63;0.98;;;13.30;99.90;;;;;;5056258;28;20021;-74
2022/09/14 09:12:52;;;;;;;5.03;1.15;;;13.20;99.90;;;;;;5056219;28;20037;-73
2022/09/14 09:15:25;;;;;;;6.60;0.70;;;13.20;99.90;;;;;;5056192;28;20070;-74
2022/09/14 09:18:31;;;;;;;1.02;0.50;;;13.20;99.90;;;;;;5056321;28;20021;-75
2022/09/14 09:21:04;;;;;;;5.22;0.68;;;13.20;99.90;;;;;;5046931;28;20036;-75
2022/09/14 09:23:34;;;;;;;2.58;0.50;;;13.10;99.90;;;;;;5055276;28;20083;-77
2022/09/14 09:26:06;;;;;;;2.90;1.10;;;13.10;99.90;;;;;;5055209;28;20025;-74
2022/09/14 09:28:38;;;;;;;2.03;0.50;;;13.10;99.90;;;;;;5055897;28;20777;-73
2022/09/14 09:31:07;;;;;;;3.33;0.80;;;13.20;99.90;;;;;;5055840;28;20017;-75
2022/09/14 09:33:35;;;;;;;1.52;0.55;;;13.10;99.90;;;;;;5055706;28;20029;-75
2022/09/14 09:36:05;;;;;;;2.45;0.60;;;13.10;99.90;;;;;;5054617;28;20431;-74
2022/09/14 09:38:33;;;;;;;3.42;0.88;;;13.10;99.90;;;;;;5055862;28;20024;-76
2022/09/14 09:41:20;;;;;;;1.85;0.70;;;13.10;99.90;;;;;;5056222;28;20361;-74
2022/09/14 09:44:09;;;;;;;2.33;0.60;;;13.10;99.90;;;;;;5054527;28;20411;-74
2022/09/14 09:46:50;;;;;;;1.13;0.50;;;13.10;99.90;;;;;;5055651;28;20033;-75
2022/09/14 09:49:26;;;;;;;2.90;0.57;;;13.10;99.90;;;;;;5056052;28;20017;-75
2022/09/14 09:51:55;;;;;;;4.53;0.50;;;13.10;99.90;;;;;;5055968;28;20104;-75
2022/09/14 09:54:27;;;;;;;2.28;0.70;;;13.10;99.90;;;;;;5055797;28;20538;-75
2022/09/14 09:57:06;;;;;;;1.92;0.60;;;13.10;99.90;;;;;;5053876;28;20079;-74
2022/09/14 09:59:43;;;;;;;1.13;0.50;;;13.10;99.90;;;;;;5054329;28;20480;-74
2022/09/14 10:02:30;;;;;;;4.28;0.68;;;13.00;99.90;;;;;;5054246;28;20544;-75
2022/09/14 10:04:57;;;;;;;3.25;0.50;;;13.00;99.90;;;;;;5055351;28;20017;-75
2022/09/14 10:07:25;;;;;;;0.98;0.55;;;13.00;99.90;;;;;;5055091;28;20151;-74
2022/09/14 10:10:11;;;;;;;1.05;0.30;;;12.90;99.90;;;;;;5055293;28;20017;-74
2022/09/14 10:12:46;;;;;;;2.15;0.70;;;13.00;99.90;;;;;;5054040;28;20128;-75
2022/09/14 10:15:27;;;;;;;3.40;0.75;;;13.00;99.90;;;;;;5054283;28;20384;-76
2022/09/14 10:18:05;;;;;;;4.13;0.50;;;13.00;99.90;;;;;;5053952;28;20025;-76
2022/09/14 10:20:33;;;;;;;3.65;0.57;;;13.00;99.90;;;;;;5053902;28;20029;-75
2022/09/14 10:23:22;;;;;;;3.72;0.63;;;13.00;99.90;;;;;;5053670;28;20032;-73
2022/09/14 10:26:09;;;;;;;2.00;0.47;;;13.00;99.90;;;;;;5053645;28;20024;-74
2022/09/14 10:28:38;;;;;;;1.23;0.40;;;13.00;99.90;;;;;;5053749;28;20115;-73
2022/09/14 10:31:17;;;;;;;1.88;0.50;;;13.00;99.90;;;;;;5053808;28;20029;-75
2022/09/14 10:33:45;;;;;;;2.67;0.60;;;13.00;99.90;;;;;;5053584;28;20094;-75
2022/09/14 10:36:31;;;;;;;2.03;0.35;;;13.00;99.90;;;;;;5054714;28;20052;-74
2022/09/14 10:39:16;;;;;;;3.13;0.65;;;13.10;99.90;;;;;;5055080;28;20029;-75
2022/09/14 10:41:47;;;;;;;1.35;0.40;;;13.00;99.90;;;;;;5053580;28;20023;-75
2022/09/14 10:44:18;;;;;;;;;;;13.00;99.90;;;;;;5053843;28;20036;-75
2022/09/14 10:46:57;;;;;;;1.65;0.43;;;13.10;99.90;;;;;;5053402;28;19995;-75
2022/09/14 10:49:53;;;;;;;1.92;0.30;;;13.10;99.90;;;;;;5054448;28;20036;-75
2022/09/14 10:52:28;;;;;;;2.67;0.38;;;13.10;99.90;;;;;;5053182;28;20055;-74
2022/09/14 10:55:14;;;;;;;1.98;0.40;;;13.20;99.90;;;;;;5054268;28;20029;-75
2022/09/14 10:57:53;;;;;;;0.65;0.30;;;13.20;99.90;;;;;;5054531;28;20017;-76
2022/09/14 11:00:21;;;;;;;2.47;0.50;;;13.20;99.90;;;;;;5054545;28;20023;-75
2022/09/14 11:03:17;;;;;;;2.05;0.50;;;13.20;99.90;;;;;;5054340;28;20168;-74
2022/09/14 11:06:01;;;;;;;2.15;0.45;;;13.10;99.90;;;;;;5054118;28;20104;-75
2022/09/14 11:08:57;;;;;;;3.92;0.50;;;13.10;99.90;;;;;;5054448;28;20025;-75
2022/09/14 11:11:33;;;;;;;2.88;0.60;;;13.10;99.90;;;;;;5054377;28;20112;-76
2022/09/14 11:14:30;;;;;;;2.50;0.85;;;13.10;99.90;;;;;;5053680;28;20045;-76
2022/09/14 11:17:16;;;;;;;2.70;0.70;;;13.10;99.90;;;;;;5053798;28;20100;-76
2022/09/14 11:20:21;;;;;;;3.35;0.50;;;13.00;99.90;;;;;;5053961;28;20021;-76
2022/09/14 11:23:00;;;;;;;2.28;0.68;;;13.00;99.90;;;;;;5051960;28;20029;-76
2022/09/14 11:25:39;;;;;;;2.38;0.60;;;13.00;99.90;;;;;;5054380;28;20025;-76
2022/09/14 11:28:19;;;;;;;4.88;0.75;;;13.10;99.90;;;;;;5054034;28;20473;-76
2022/09/14 11:30:54;;;;;;;3.13;0.50;;;13.00;99.90;;;;;;5052442;28;20495;-76
2022/09/14 11:33:49;;;;;;;3.83;0.52;;;13.00;99.90;;;;;;5054011;28;20108;-75
2022/09/14 11:36:22;;;;;;;4.15;1.02;;;12.90;99.90;;;;;;5053707;28;20020;-75
2022/09/14 11:39:00;;;;;;;3.42;0.47;;;12.80;99.90;;;;;;5052453;28;20127;-75
2022/09/14 11:41:32;;;;;;;3.50;0.60;;;12.70;99.90;;;;;;5053642;28;20480;-76
2022/09/14 11:44:06;;;;;;;3.10;0.60;;;12.60;99.90;;;;;;5052255;28;20163;-75
2022/09/14 11:46:48;;;;;;;2.15;0.73;;;12.60;99.90;;;;;;5052368;28;20116;-76
2022/09/14 11:49:18;;;;;;;3.83;0.73;;;12.60;99.90;;;;;;5053382;28;20029;-76
2022/09/14 11:52:15;;;;;;;2.20;0.80;;;12.50;99.90;;;;;;5051980;28;20070;-76
2022/09/14 11:54:44;;;;;;;3.92;0.80;;;12.50;99.90;;;;;;5053265;28;20021;-77
2022/09/14 11:57:20;;;;;;;2.80;0.80;;;12.40;99.90;;;;;;5053286;28;20025;-76
2022/09/14 11:59:52;;;;;;;4.20;1.00;;;12.40;99.90;;;;;;5053469;28;20016;-76
2022/09/14 12:02:28;;;;;;;3.38;1.27;;;12.30;99.90;;;;;;5053250;28;20044;-76
2022/09/14 12:05:07;;;;;;;5.22;1.40;;;12.30;99.90;;;;;;5053309;28;20044;-76
2022/09/14 12:07:49;;;;;;;2.22;0.70;;;12.30;99.90;;;;;;5052021;28;20037;-75
2022/09/14 12:10:16;;;;;;;5.35;0.90;;;12.30;99.90;;;;;;5053832;28;20025;-74
2022/09/14 12:12:45;;;;;;;3.70;1.08;;;12.30;99.90;;;;;;5053135;28;20459;-76
2022/09/14 12:15:25;;;;;;;3.63;1.13;;;12.20;99.90;;;;;;5053321;28;20044;-76
2022/09/14 12:18:13;;;;;;;5.95;1.23;;;12.20;99.90;;;;;;5053346;28;20088;-75
2022/09/14 12:20:42;;;;;;;6.07;1.05;;;12.20;99.90;;;;;;5052039;28;20021;-76
2022/09/14 12:23:22;;;;;;;3.40;0.80;;;12.10;99.90;;;;;;5051062;28;20040;-75
2022/09/14 12:26:07;;;;;;;3.67;0.82;;;12.10;99.90;;;;;;5053034;28;20401;-76
2022/09/14 12:28:37;;;;;;;2.75;1.00;;;12.10;99.90;;;;;;5053653;28;20025;-75
2022/09/14 12:31:05;;;;;;;4.32;0.90;;;12.00;99.90;;;;;;5053093;28;20024;-75
2022/09/14 12:33:32;;;;;;;1.85;0.70;;;12.00;99.90;;;;;;5051463;28;20040;-75
2022/09/14 12:36:03;;;;;;;3.85;0.73;;;12.00;99.90;;;;;;5057463;28;20100;-75
2022/09/14 12:38:30;;;;;;;2.55;1.15;;;12.00;99.90;;;;;;5055782;28;20425;-75
2022/09/14 12:40:59;;;;;;;2.25;0.80;;;12.10;99.90;;;;;;5055881;28;20443;-76
2022/09/14 12:43:35;;;;;;;4.00;0.70;;;12.10;99.90;;;;;;5056973;28;20028;-77
2022/09/14 12:46:21;;;;;;;3.03;0.68;;;12.00;99.90;;;;;;5057031;28;20024;-76
2022/09/14 12:48:49;;;;;;;3.85;0.73;;;12.10;99.90;;;;;;5057110;28;20078;-75
2022/09/14 12:51:31;;;;;;;2.95;0.90;;;12.00;99.90;;;;;;5057250;28;20032;-75
2022/09/14 12:54:08;;;;;;;4.03;1.00;;;12.10;99.90;;;;;;5056640;28;20183;-75
2022/09/14 12:56:53;;;;;;;5.05;0.88;;;12.10;99.90;;;;;;5057142;28;20035;-76
2022/09/14 12:59:38;;;;;;;3.10;1.35;;;12.10;99.90;;;;;;5055432;28;20086;-76
2022/09/14 13:02:27;;;;;;;3.28;0.88;;;12.10;99.90;;;;;;5056605;28;20017;-76
2022/09/14 13:04:56;;;;;;;1.77;0.50;;;12.10;99.90;;;;;;5055197;28;20097;-76
2022/09/14 13:07:29;;;;;;;2.03;0.50;;;12.00;99.90;;;;;;5055443;28;20028;-76
2022/09/14 13:09:58;;;;;;;3.33;0.60;;;12.10;99.90;;;;;;5056698;28;20104;-77
2022/09/14 13:12:42;;;;;;;4.07;0.60;;;12.20;99.90;;;;;;5056312;28;20060;-76
2022/09/14 13:15:58;;;;;;;3.20;0.88;;;12.10;99.90;;;;;;5056657;28;20380;-76
2022/09/14 13:18:37;;;;;;;4.32;0.60;;;12.10;99.90;;;;;;5055390;28;20033;-76
2022/09/14 13:21:22;;;;;;;8.18;0.73;;;12.20;99.90;;;;;;5056289;28;20075;-76
2022/09/14 13:23:50;;;;;;;3.05;0.60;;;12.10;99.90;;;;;;5055121;28;20071;-77
2022/09/14 13:26:25;;;;;;;3.45;1.05;;;12.10;99.90;;;;;;5056330;28;20472;-77
2022/09/14 13:28:59;;;;;;;4.00;0.70;;;12.00;99.90;;;;;;5056080;28;20392;-77
2022/09/14 13:31:36;;;;;;;4.43;0.60;;;12.00;99.90;;;;;;5054746;28;20543;-76
2022/09/14 13:34:04;;;;;;;1.63;0.47;;;12.00;99.90;;;;;;5054995;28;20076;-75
2022/09/14 13:36:41;;;;;;;2.17;0.60;;;12.00;99.90;;;;;;5055844;28;20032;-76
2022/09/14 13:39:23;;;;;;;4.55;0.82;;;12.00;99.90;;;;;;5055944;28;20024;-77
2022/09/14 13:41:51;;;;;;;4.03;0.68;;;12.00;99.90;;;;;;5055926;28;20385;-77
2022/09/14 13:44:22;;;;;;;2.88;0.57;;;12.00;99.90;;;;;;5055827;28;20096;-76
2022/09/14 13:46:49;;;;;;;2.78;0.75;;;12.10;99.90;;;;;;5055720;28;20076;-76
2022/09/14 13:49:17;;;;;;;2.65;0.82;;;12.10;99.90;;;;;;5054275;28;20110;-76
2022/09/14 13:51:44;;;;;;;2.60;0.82;;;12.00;99.90;;;;;;5054606;28;20013;-75
2022/09/14 13:54:24;;;;;;;3.65;1.02;;;12.10;99.90;;;;;;5055417;28;20021;-75
2022/09/14 13:57:17;;;;;;;3.83;0.80;;;12.10;99.90;;;;;;5054208;28;20484;-76
2022/09/14 14:00:07;;;;;;;5.43;1.08;;;12.10;99.90;;;;;;5055455;28;20100;-76
2022/09/14 14:02:35;;;;;;;2.22;0.70;;;12.20;99.90;;;;;;5055387;28;20119;-75
2022/09/14 14:05:05;;;;;;;4.28;0.82;;;12.20;99.90;;;;;;5053913;28;20022;-76